Cavan, Ireland
Current Conditions -  °F | °C
As of 8:30 AM on Saturday 20 Dec 2014 (Local Time) from EISG Reporting Station
Broken Clouds Broken Clouds  
Wind Chill: 39°   Ceiling: 3600
Heat Index: 46°   Visibility: 4mi
Dew Point: 41°   Wind: 18mph
Humidity: 81%   Direction: 280°W
Pressure: 30.27"   Gusts: NA
Location:  54°N, 7.37°W
Report Text: EISG 200830Z 28016KT 7000 SCT029 BKN036 08/05 Q1025
Loading
Personal Weather Stations






























Interactive Weather Map New forecast layout! Learn more

10-Day Weather Forecast

Advertisements
Track Severe Weather on mobile